createdAt,value
2019-06-26T00:00:11.266Z,100803.42
2019-06-26T00:01:48.685Z,100804.60
2019-06-26T00:03:24.315Z,100800.38
2019-06-26T00:05:00.733Z,100793.42
2019-06-26T00:06:36.369Z,100792.13
2019-06-26T00:08:12.727Z,100792.50
2019-06-26T00:09:48.296Z,100796.52
2019-06-26T00:11:25.038Z,100793.23
2019-06-26T00:13:00.871Z,100793.13
2019-06-26T00:14:38.918Z,100794.68
2019-06-26T00:16:15.004Z,100794.20
2019-06-26T00:17:51.356Z,100803.80
2019-06-26T00:19:26.921Z,100798.00
2019-06-26T00:21:03.414Z,100798.36
2019-06-26T00:22:39.051Z,100796.23
2019-06-26T00:24:15.425Z,100797.44
2019-06-26T00:25:50.995Z,100795.78
2019-06-26T00:27:27.615Z,100790.38
2019-06-26T00:29:03.305Z,100793.09
2019-06-26T00:30:39.909Z,100792.28
2019-06-26T00:32:15.490Z,100798.65
2019-06-26T00:33:51.884Z,100794.89
2019-06-26T00:35:27.723Z,100791.25
2019-06-26T00:37:04.062Z,100795.63
2019-06-26T00:38:40.235Z,100791.61
2019-06-26T00:40:17.579Z,100797.61
2019-06-26T00:41:53.161Z,100794.33
2019-06-26T00:43:42.078Z,100797.53
2019-06-26T00:45:08.565Z,100794.58
2019-06-26T00:46:44.917Z,100787.62
2019-06-26T00:48:20.757Z,100792.00
2019-06-26T00:49:57.127Z,100796.73
2019-06-26T00:51:32.695Z,100784.93
2019-06-26T00:53:09.379Z,100790.48
2019-06-26T00:54:44.978Z,100789.19
2019-06-26T00:56:21.328Z,100789.43
2019-06-26T00:57:57.211Z,100786.96
2019-06-26T00:59:33.583Z,100791.81
2019-06-26T01:01:09.159Z,100794.13
2019-06-26T01:02:45.775Z,100787.66
2019-06-26T01:04:26.078Z,100789.31
2019-06-26T01:06:02.744Z,100788.47
2019-06-26T01:07:38.922Z,100786.81
2019-06-26T01:09:16.558Z,100790.84
2019-06-26T01:10:52.167Z,100795.66
2019-06-26T01:12:28.763Z,100789.55
2019-06-26T01:14:04.389Z,100794.85
2019-06-26T01:15:42.049Z,100800.52
2019-06-26T01:17:17.893Z,100792.02
2019-06-26T01:18:54.478Z,100796.84
2019-06-26T01:20:30.052Z,100792.84
2019-06-26T01:22:06.723Z,100796.84
2019-06-26T01:23:42.568Z,100788.02
2019-06-26T01:25:20.032Z,100789.19
2019-06-26T01:26:55.588Z,100794.48
2019-06-26T01:28:32.988Z,100792.84
2019-06-26T01:30:09.439Z,100788.02
2019-06-26T01:31:46.061Z,100795.66
2019-06-26T01:33:21.886Z,100792.38
2019-06-26T01:34:58.476Z,100792.38
2019-06-26T01:36:34.066Z,100786.72
2019-06-26T01:38:10.397Z,100790.36
2019-06-26T01:39:46.211Z,100796.84
2019-06-26T01:41:22.566Z,100800.03
2019-06-26T01:42:58.380Z,100794.38
2019-06-26T01:44:34.974Z,100794.73
2019-06-26T01:46:10.558Z,100796.75
2019-06-26T01:47:47.349Z,100794.25
2019-06-26T01:49:22.910Z,100791.42
2019-06-26T01:50:59.280Z,100799.46
2019-06-26T01:52:35.103Z,100801.12
2019-06-26T01:54:11.474Z,100795.82
2019-06-26T01:55:47.405Z,100797.80
2019-06-26T01:57:24.014Z,100792.50
2019-06-26T01:58:59.845Z,100798.53
2019-06-26T02:00:36.446Z,100795.70
2019-06-26T02:02:12.009Z,100792.03
2019-06-26T02:03:48.615Z,100792.75
2019-06-26T02:05:24.447Z,100800.06
2019-06-26T02:07:00.816Z,100794.77
2019-06-26T02:08:36.392Z,100797.59
2019-06-26T02:10:13.279Z,100793.56
2019-06-26T02:11:49.115Z,100797.59
2019-06-26T02:13:25.724Z,100795.45
2019-06-26T02:15:01.596Z,100792.17
2019-06-26T02:16:37.997Z,100794.16
2019-06-26T02:18:33.414Z,100790.52
2019-06-26T02:20:10.329Z,100795.00
2019-06-26T02:21:47.014Z,100790.39
2019-06-26T02:23:23.326Z,100791.20
2019-06-26T02:24:58.890Z,100788.73
2019-06-26T02:26:35.284Z,100786.75
2019-06-26T02:28:10.853Z,100783.08
2019-06-26T02:29:47.203Z,100785.91
2019-06-26T02:31:22.786Z,100785.45
2019-06-26T02:32:59.149Z,100783.80
2019-06-26T02:34:34.713Z,100784.61
2019-06-26T02:36:11.403Z,100789.45
2019-06-26T02:37:47.228Z,100791.47
2019-06-26T02:39:23.570Z,100788.65
2019-06-26T02:40:59.406Z,100785.81
2019-06-26T02:42:35.757Z,100784.98
2019-06-26T02:44:12.301Z,100782.14
2019-06-26T02:45:48.679Z,100783.67
2019-06-26T02:47:24.268Z,100786.15
2019-06-26T02:49:00.713Z,100780.85
2019-06-26T02:50:36.272Z,100782.50
2019-06-26T02:52:12.651Z,100780.85
2019-06-26T02:53:48.206Z,100779.20
2019-06-26T02:55:24.563Z,100774.73
2019-06-26T02:57:00.146Z,100776.73
2019-06-26T02:58:36.528Z,100779.10
2019-06-26T03:00:12.233Z,100776.27
2019-06-26T03:01:48.599Z,100778.26
2019-06-26T03:03:24.163Z,100773.77
2019-06-26T03:05:00.517Z,100772.15
2019-06-26T03:06:36.164Z,100766.82
2019-06-26T03:08:12.474Z,100767.66
2019-06-26T03:09:48.028Z,100764.83
2019-06-26T03:11:26.065Z,100770.85
2019-06-26T03:13:01.648Z,100775.66
2019-06-26T03:14:37.988Z,100775.21
2019-06-26T03:16:13.844Z,100767.54
2019-06-26T03:17:55.245Z,100776.02
2019-06-26T03:19:27.699Z,100780.87
2019-06-26T03:21:04.569Z,100776.02
2019-06-26T03:22:40.396Z,100775.21
2019-06-26T03:24:16.733Z,100773.55
2019-06-26T03:25:52.303Z,100776.38
2019-06-26T03:27:28.663Z,100777.20
2019-06-26T03:29:04.483Z,100780.87
2019-06-26T03:30:41.092Z,100778.85
2019-06-26T03:32:17.045Z,100777.20
2019-06-26T03:33:53.610Z,100771.54
2019-06-26T03:35:29.435Z,100775.21
2019-06-26T03:37:06.147Z,100769.55
2019-06-26T03:38:41.686Z,100776.84
2019-06-26T03:40:19.267Z,100776.84
2019-06-26T03:41:54.840Z,100773.68
2019-06-26T03:43:31.438Z,100778.98
2019-06-26T03:45:24.127Z,100776.60
2019-06-26T03:46:46.280Z,100775.91
2019-06-26T03:48:22.067Z,100776.73
2019-06-26T03:49:58.685Z,100778.38
2019-06-26T03:51:34.514Z,100773.66
2019-06-26T03:53:10.887Z,100768.13
2019-06-26T03:54:46.793Z,100777.55
2019-06-26T03:56:23.400Z,100773.19
2019-06-26T03:57:58.966Z,100776.95
2019-06-26T03:59:35.572Z,100775.89
2019-06-26T04:01:12.374Z,100768.78
2019-06-26T04:02:48.716Z,100777.03
2019-06-26T04:04:24.540Z,100776.34
2019-06-26T04:06:01.165Z,100778.11
2019-06-26T04:07:37.030Z,100777.05
2019-06-26T04:09:13.412Z,100777.61
2019-06-26T04:10:49.199Z,100776.55
2019-06-26T04:12:25.801Z,100778.77
2019-06-26T04:14:01.397Z,100772.48
2019-06-26T04:15:42.579Z,100777.91
2019-06-26T04:17:15.514Z,100774.45
2019-06-26T04:18:51.892Z,100774.67
2019-06-26T04:20:27.547Z,100775.70
2019-06-26T04:22:05.159Z,100773.45
2019-06-26T04:23:41.726Z,100777.31
2019-06-26T04:25:18.454Z,100776.31
2019-06-26T04:26:54.003Z,100779.36
2019-06-26T04:28:30.404Z,100768.20
2019-06-26T04:30:10.795Z,100785.41
2019-06-26T04:31:47.129Z,100785.58
2019-06-26T04:33:22.687Z,100778.09
2019-06-26T04:34:59.276Z,100773.02
2019-06-26T04:36:34.842Z,100782.54
2019-06-26T04:38:11.209Z,100778.59
2019-06-26T04:39:47.058Z,100779.59
2019-06-26T04:41:23.668Z,100773.27
2019-06-26T04:42:59.518Z,100772.61
2019-06-26T04:44:35.864Z,100780.94
2019-06-26T04:46:11.689Z,100775.08
2019-06-26T04:47:48.691Z,100780.13
2019-06-26T04:49:24.833Z,100777.47
2019-06-26T04:51:01.519Z,100777.23
2019-06-26T04:52:37.058Z,100780.25
2019-06-26T04:54:13.715Z,100780.39
2019-06-26T04:55:49.622Z,100787.89
2019-06-26T04:57:25.965Z,100785.66
2019-06-26T04:59:01.808Z,100786.75
2019-06-26T05:00:38.415Z,100793.02
2019-06-26T05:02:14.260Z,100781.41
2019-06-26T05:03:50.675Z,100781.56
2019-06-26T05:05:39.191Z,100784.98
2019-06-26T05:07:05.772Z,100794.94
2019-06-26T05:08:41.618Z,100788.64
2019-06-26T05:10:18.387Z,100784.81
2019-06-26T05:11:53.948Z,100782.58
2019-06-26T05:13:30.577Z,100779.55
2019-06-26T05:15:08.412Z,100780.18
2019-06-26T05:16:46.501Z,100777.14
2019-06-26T05:18:22.108Z,100779.79
2019-06-26T05:19:58.466Z,100772.27
2019-06-26T05:21:35.072Z,100792.05
2019-06-26T05:23:11.459Z,100784.15
2019-06-26T05:24:47.006Z,100788.02
2019-06-26T05:26:23.797Z,100786.60
2019-06-26T05:27:59.371Z,100791.30
2019-06-26T05:29:36.060Z,100791.06
2019-06-26T05:31:11.680Z,100783.91
2019-06-26T05:32:48.316Z,100787.73
2019-06-26T05:34:24.203Z,100792.76
2019-06-26T05:36:00.629Z,100795.33
2019-06-26T05:37:36.507Z,100798.30
2019-06-26T05:39:13.106Z,100788.22
2019-06-26T05:40:48.753Z,100793.22
2019-06-26T05:42:25.377Z,100792.84
2019-06-26T05:44:00.984Z,100790.89
2019-06-26T05:45:37.628Z,100789.33
2019-06-26T05:47:13.212Z,100791.02
2019-06-26T05:48:49.819Z,100800.84
2019-06-26T05:50:25.988Z,100795.18
2019-06-26T05:52:02.409Z,100797.67
2019-06-26T05:53:46.304Z,100799.33
2019-06-26T05:55:22.196Z,100798.17
2019-06-26T05:56:58.786Z,100802.30
2019-06-26T05:58:34.355Z,100799.45
2019-06-26T06:00:12.084Z,100800.30
2019-06-26T06:01:47.894Z,100804.39
2019-06-26T06:03:24.538Z,100792.17
2019-06-26T06:05:00.479Z,100799.54
2019-06-26T06:06:41.852Z,100797.92
2019-06-26T06:08:14.065Z,100804.05
2019-06-26T06:09:50.385Z,100805.28
2019-06-26T06:11:26.110Z,100794.23
2019-06-26T06:13:02.532Z,100799.55
2019-06-26T06:14:39.372Z,100799.09
2019-06-26T06:16:15.713Z,100787.62
2019-06-26T06:17:51.263Z,100794.14
2019-06-26T06:19:27.629Z,100792.02
2019-06-26T06:21:03.193Z,100791.56
2019-06-26T06:22:40.027Z,100799.70
2019-06-26T06:24:15.603Z,100790.58
2019-06-26T06:25:51.926Z,100797.05
2019-06-26T06:27:27.494Z,100793.69
2019-06-26T06:29:04.844Z,100803.39
2019-06-26T06:30:40.408Z,100790.58
2019-06-26T06:32:17.008Z,100794.52
2019-06-26T06:33:52.564Z,100797.22
2019-06-26T06:35:28.890Z,100798.33
2019-06-26T06:37:04.445Z,100805.55
2019-06-26T06:38:40.788Z,100804.91
2019-06-26T06:40:16.668Z,100797.32
2019-06-26T06:41:53.257Z,100811.02
2019-06-26T06:43:29.072Z,100805.84
2019-06-26T06:45:09.535Z,100812.97
2019-06-26T06:46:45.348Z,100804.05
2019-06-26T06:48:21.751Z,100808.72
2019-06-26T06:49:57.598Z,100805.97
2019-06-26T06:51:34.210Z,100809.81
2019-06-26T06:53:09.800Z,100815.66
2019-06-26T06:54:46.163Z,100812.42
2019-06-26T06:56:22.113Z,100809.66
2019-06-26T06:57:58.447Z,100812.63
2019-06-26T06:59:34.279Z,100820.55
2019-06-26T07:01:10.865Z,100810.66
2019-06-26T07:02:46.477Z,100809.06
2019-06-26T07:04:23.148Z,100808.30
2019-06-26T07:05:58.703Z,100799.30
2019-06-26T07:07:35.042Z,100807.61
2019-06-26T07:09:10.601Z,100796.97
2019-06-26T07:10:47.193Z,100807.34
2019-06-26T07:12:23.042Z,100808.20
2019-06-26T07:13:59.658Z,100802.98
2019-06-26T07:15:35.466Z,100808.79
2019-06-26T07:17:20.711Z,100805.15
2019-06-26T07:18:50.286Z,100806.48
2019-06-26T07:20:26.956Z,100809.87
2019-06-26T07:22:02.766Z,100812.44
2019-06-26T07:23:40.243Z,100805.52
2019-06-26T07:25:17.264Z,100812.98
2019-06-26T07:26:52.848Z,100812.16
2019-06-26T07:28:29.449Z,100811.36
2019-06-26T07:30:07.178Z,100816.72
2019-06-26T07:31:43.498Z,100810.55
2019-06-26T07:33:19.057Z,100814.70
2019-06-26T07:34:55.747Z,100816.42
2019-06-26T07:36:31.347Z,100809.95
2019-06-26T07:38:07.722Z,100815.48
2019-06-26T07:39:43.540Z,100806.55
2019-06-26T07:41:20.192Z,100817.86
2019-06-26T07:42:56.744Z,100825.49
2019-06-26T07:44:33.327Z,100811.25
2019-06-26T07:46:09.144Z,100816.77
2019-06-26T07:47:45.569Z,100811.52
2019-06-26T07:49:21.366Z,100820.77
2019-06-26T07:50:57.970Z,100819.23
2019-06-26T07:52:33.546Z,100818.95
2019-06-26T07:54:10.017Z,100820.66
2019-06-26T07:55:45.583Z,100816.67
2019-06-26T07:57:22.219Z,100832.67
2019-06-26T07:58:58.035Z,100829.61
2019-06-26T08:00:34.793Z,100829.00
2019-06-26T08:02:11.175Z,100814.34
2019-06-26T08:03:47.743Z,100823.30
2019-06-26T08:05:23.316Z,100835.41
2019-06-26T08:06:59.913Z,100829.33
2019-06-26T08:08:35.719Z,100829.19
2019-06-26T08:10:12.663Z,100828.22
2019-06-26T08:11:48.291Z,100840.50
2019-06-26T08:13:24.636Z,100830.84
2019-06-26T08:15:00.443Z,100837.31
2019-06-26T08:16:36.786Z,100828.02
2019-06-26T08:18:12.591Z,100828.66
2019-06-26T08:19:49.191Z,100833.84
2019-06-26T08:21:25.033Z,100829.97
2019-06-26T08:23:01.380Z,100825.78
2019-06-26T08:24:37.199Z,100834.98
2019-06-26T08:26:13.815Z,100830.15
2019-06-26T08:27:50.071Z,100826.10
2019-06-26T08:29:26.424Z,100837.37
2019-06-26T08:31:02.245Z,100832.84
2019-06-26T08:32:38.734Z,100829.46
2019-06-26T08:34:15.534Z,100831.91
2019-06-26T08:35:52.239Z,100824.65
2019-06-26T08:37:27.768Z,100829.48
2019-06-26T08:39:04.180Z,100839.69
2019-06-26T08:40:41.456Z,100833.24
2019-06-26T08:42:18.053Z,100829.85
2019-06-26T08:43:53.861Z,100832.27
2019-06-26T08:45:30.445Z,100834.23
2019-06-26T08:47:06.263Z,100834.06
2019-06-26T08:48:42.866Z,100830.21
2019-06-26T08:50:20.276Z,100835.91
2019-06-26T08:51:57.210Z,100825.72
2019-06-26T08:53:33.008Z,100832.36
2019-06-26T08:55:10.218Z,100825.23
2019-06-26T08:56:46.114Z,100828.48
2019-06-26T08:58:22.672Z,100823.01
2019-06-26T08:59:58.310Z,100825.42
2019-06-26T09:01:34.907Z,100844.16
2019-06-26T09:03:10.708Z,100828.83
2019-06-26T09:04:47.041Z,100827.84
2019-06-26T09:06:22.890Z,100829.47
2019-06-26T09:07:59.252Z,100828.64
2019-06-26T09:09:35.119Z,100829.47
2019-06-26T09:11:11.485Z,100826.56
2019-06-26T09:12:47.355Z,100829.47
2019-06-26T09:14:23.964Z,100827.84
2019-06-26T09:15:59.817Z,100842.05
2019-06-26T09:17:36.913Z,100825.58
2019-06-26T09:19:12.484Z,100832.52
2019-06-26T09:20:49.106Z,100836.51
2019-06-26T09:22:24.707Z,100833.41
2019-06-26T09:24:01.281Z,100839.85
2019-06-26T09:25:36.996Z,100835.98
2019-06-26T09:27:14.982Z,100839.34
2019-06-26T09:28:50.874Z,100839.34
2019-06-26T09:30:28.332Z,100838.55
2019-06-26T09:32:03.974Z,100830.97
2019-06-26T09:33:40.293Z,100835.02
2019-06-26T09:35:16.019Z,100830.68
2019-06-26T09:36:52.377Z,100833.89
2019-06-26T09:38:27.951Z,100828.08
2019-06-26T09:40:04.962Z,100820.65
2019-06-26T09:41:40.530Z,100825.66
2019-06-26T09:43:16.859Z,100815.17
2019-06-26T09:44:52.478Z,100827.14
2019-06-26T09:46:28.954Z,100827.45
2019-06-26T09:48:04.483Z,100829.08
2019-06-26T09:49:40.825Z,100821.16
2019-06-26T09:51:16.382Z,100824.89
2019-06-26T09:52:52.982Z,100824.40
2019-06-26T09:54:28.528Z,100827.80
2019-06-26T09:56:04.876Z,100822.92
2019-06-26T09:57:40.606Z,100824.87
2019-06-26T09:59:16.966Z,100818.72
2019-06-26T10:00:52.521Z,100824.19
2019-06-26T10:02:28.902Z,100822.25
2019-06-26T10:04:04.467Z,100821.91
2019-06-26T10:05:41.475Z,100815.78
2019-06-26T10:07:17.039Z,100817.86
2019-06-26T10:08:54.491Z,100824.16
2019-06-26T10:10:30.331Z,100822.54
2019-06-26T10:12:06.821Z,100816.90
2019-06-26T10:13:42.375Z,100816.56
2019-06-26T10:15:19.061Z,100814.28
2019-06-26T10:16:54.643Z,100811.83
2019-06-26T10:18:32.370Z,100810.20
2019-06-26T10:20:11.731Z,100816.02
2019-06-26T10:21:48.395Z,100808.58
2019-06-26T10:23:23.929Z,100809.55
2019-06-26T10:25:00.262Z,100808.27
2019-06-26T10:26:35.821Z,100809.06
2019-06-26T10:28:12.432Z,100808.75
2019-06-26T10:29:47.988Z,100810.03
2019-06-26T10:31:24.575Z,100805.51
2019-06-26T10:33:00.417Z,100803.08
2019-06-26T10:34:36.744Z,100797.77
2019-06-26T10:36:12.339Z,100807.89
2019-06-26T10:37:48.981Z,100803.85
2019-06-26T10:39:24.532Z,100800.29
2019-06-26T10:41:00.920Z,100795.10
2019-06-26T10:42:36.500Z,100799.42
2019-06-26T10:44:12.825Z,100795.06
2019-06-26T10:45:48.538Z,100788.56
2019-06-26T10:47:24.933Z,100800.31
2019-06-26T10:49:00.468Z,100792.22
2019-06-26T10:50:47.887Z,100788.66
2019-06-26T10:52:14.106Z,100789.41
2019-06-26T10:53:50.672Z,100793.75
2019-06-26T10:55:26.233Z,100780.65
2019-06-26T10:57:02.588Z,100782.51
2019-06-26T10:58:38.146Z,100787.99
2019-06-26T11:00:20.322Z,100795.20
2019-06-26T11:01:52.368Z,100782.92
2019-06-26T11:03:28.979Z,100779.36
2019-06-26T11:05:08.184Z,100788.19
2019-06-26T11:06:44.830Z,100784.14
2019-06-26T11:08:20.350Z,100783.00
2019-06-26T11:09:56.678Z,100781.05
2019-06-26T11:11:32.953Z,100777.48
2019-06-26T11:13:09.583Z,100782.13
2019-06-26T11:14:45.363Z,100774.70
2019-06-26T11:16:21.697Z,100774.35
2019-06-26T11:17:57.730Z,100771.45
2019-06-26T11:19:43.756Z,100763.23
2019-06-26T11:21:11.948Z,100764.86
2019-06-26T11:22:49.512Z,100765.17
2019-06-26T11:24:25.074Z,100761.83
2019-06-26T11:26:01.803Z,100759.73
2019-06-26T11:27:37.759Z,100763.42
2019-06-26T11:29:14.085Z,100758.94
2019-06-26T11:30:49.660Z,100757.62
2019-06-26T11:32:26.008Z,100762.15
2019-06-26T11:34:01.836Z,100754.73
2019-06-26T11:35:38.166Z,100753.45
2019-06-26T11:37:16.914Z,100756.83
2019-06-26T11:38:53.330Z,100745.01
2019-06-26T11:40:28.870Z,100740.12
2019-06-26T11:42:07.338Z,100732.86
2019-06-26T11:43:43.227Z,100747.48
2019-06-26T11:45:19.712Z,100742.29
2019-06-26T11:46:55.272Z,100746.14
2019-06-26T11:48:31.954Z,100743.37
2019-06-26T11:50:11.075Z,100740.11
2019-06-26T11:51:47.414Z,100740.11
2019-06-26T11:53:22.952Z,100731.89
2019-06-26T11:55:03.002Z,100747.54
2019-06-26T11:56:36.571Z,100737.09
2019-06-26T11:58:12.891Z,100743.56
2019-06-26T11:59:48.587Z,100743.79
2019-06-26T12:01:25.199Z,100745.73
2019-06-26T12:03:01.837Z,100735.29
2019-06-26T12:04:38.196Z,100737.71
2019-06-26T12:06:19.024Z,100736.44
2019-06-26T12:07:52.041Z,100735.16
2019-06-26T12:09:27.855Z,100737.71
2019-06-26T12:11:04.196Z,100740.26
2019-06-26T12:12:39.732Z,100734.14
2019-06-26T12:14:16.080Z,100730.41
2019-06-26T12:15:51.798Z,100725.92
2019-06-26T12:17:28.149Z,100728.81
2019-06-26T12:19:03.788Z,100725.92
2019-06-26T12:20:40.133Z,100725.56
2019-06-26T12:22:15.728Z,100723.94
2019-06-26T12:23:52.029Z,100718.63
2019-06-26T12:25:27.822Z,100714.09
2019-06-26T12:27:04.166Z,100715.84
2019-06-26T12:28:39.739Z,100717.16
2019-06-26T12:30:16.221Z,100703.58
2019-06-26T12:31:51.763Z,100716.61
2019-06-26T12:33:28.115Z,100710.94
2019-06-26T12:35:05.112Z,100710.58
2019-06-26T12:36:41.702Z,100710.73
2019-06-26T12:38:17.264Z,100705.03
2019-06-26T12:39:53.675Z,100699.71
2019-06-26T12:41:29.235Z,100703.05
2019-06-26T12:43:05.881Z,100704.00
2019-06-26T12:44:41.452Z,100711.07
2019-06-26T12:46:18.378Z,100708.65
2019-06-26T12:47:53.933Z,100704.13
2019-06-26T12:49:30.280Z,100702.50
2019-06-26T12:51:05.829Z,100708.77
2019-06-26T12:52:42.244Z,100710.05
2019-06-26T12:54:18.051Z,100715.04
2019-06-26T12:55:54.631Z,100710.05
2019-06-26T12:57:30.196Z,100704.25
2019-06-26T12:59:06.547Z,100702.17
2019-06-26T13:00:42.303Z,100699.28
2019-06-26T13:02:18.624Z,100700.08
2019-06-26T13:03:54.188Z,100695.11
2019-06-26T13:05:30.529Z,100693.81
2019-06-26T13:07:06.397Z,100678.52
2019-06-26T13:08:42.994Z,100686.86
2019-06-26T13:10:20.257Z,100694.08
2019-06-26T13:11:56.591Z,100686.34
2019-06-26T13:13:32.139Z,100685.98
2019-06-26T13:15:13.791Z,100684.36
2019-06-26T13:16:51.261Z,100688.20
2019-06-26T13:18:26.891Z,100692.38
2019-06-26T13:20:03.283Z,100699.44
2019-06-26T13:21:38.800Z,100690.75
2019-06-26T13:23:15.430Z,100678.84
2019-06-26T13:24:50.968Z,100678.01
2019-06-26T13:26:27.330Z,100680.11
2019-06-26T13:28:03.004Z,100683.00
2019-06-26T13:29:39.362Z,100683.48
2019-06-26T13:31:14.912Z,100688.91
2019-06-26T13:32:52.499Z,100697.25
2019-06-26T13:34:28.376Z,100686.97
2019-06-26T13:36:04.725Z,100679.16
2019-06-26T13:37:40.290Z,100681.27
2019-06-26T13:39:16.634Z,100677.56
2019-06-26T13:40:52.201Z,100687.53
2019-06-26T13:42:28.606Z,100678.01
2019-06-26T13:44:04.256Z,100679.75
2019-06-26T13:45:40.854Z,100683.48
2019-06-26T13:47:16.681Z,100686.02
2019-06-26T13:48:53.082Z,100677.80
2019-06-26T13:50:28.955Z,100682.80
2019-06-26T13:52:05.351Z,100678.75
2019-06-26T13:53:42.821Z,100679.19
2019-06-26T13:55:19.235Z,100674.34
2019-06-26T13:56:55.687Z,100675.75
2019-06-26T13:58:33.241Z,100672.86
2019-06-26T14:00:09.595Z,100665.09
2019-06-26T14:01:46.173Z,100670.98
2019-06-26T14:03:21.970Z,100665.67
2019-06-26T14:04:58.566Z,100671.14
2019-06-26T14:06:34.115Z,100654.20
2019-06-26T14:08:10.451Z,100663.03
2019-06-26T14:09:46.304Z,100665.55
2019-06-26T14:11:23.903Z,100665.19
2019-06-26T14:12:59.722Z,100661.61
2019-06-26T14:14:52.594Z,100656.29
2019-06-26T14:16:13.577Z,100660.13
2019-06-26T14:17:49.997Z,100647.86
2019-06-26T14:19:26.926Z,100653.75
2019-06-26T14:21:03.519Z,100653.40
2019-06-26T14:22:39.068Z,100656.41
2019-06-26T14:24:16.619Z,100654.45
2019-06-26T14:25:52.199Z,100643.45
2019-06-26T14:27:28.779Z,100642.77
2019-06-26T14:29:20.017Z,100644.93
2019-06-26T14:30:44.261Z,100651.19
2019-06-26T14:32:19.821Z,100646.30
2019-06-26T14:33:56.840Z,100643.08
2019-06-26T14:35:32.405Z,100643.98
2019-06-26T14:37:08.745Z,100637.51
2019-06-26T14:38:44.301Z,100641.34
2019-06-26T14:40:22.251Z,100631.61
2019-06-26T14:41:57.822Z,100630.81
2019-06-26T14:43:34.147Z,100639.12
2019-06-26T14:45:10.160Z,100629.65
2019-06-26T14:46:46.485Z,100633.44
2019-06-26T14:48:22.283Z,100624.08
2019-06-26T14:49:58.626Z,100627.89
2019-06-26T14:51:43.947Z,100631.69
2019-06-26T14:53:12.537Z,100631.79
2019-06-26T14:54:48.089Z,100637.67
2019-06-26T14:56:24.689Z,100627.01
2019-06-26T14:58:00.318Z,100630.36
2019-06-26T14:59:36.634Z,100622.95
2019-06-26T15:01:12.521Z,100623.42
2019-06-26T15:02:48.927Z,100627.57
2019-06-26T15:04:24.482Z,100622.72
2019-06-26T15:06:15.346Z,100614.98
2019-06-26T15:07:38.366Z,100613.81
2019-06-26T15:09:14.706Z,100608.50
2019-06-26T15:10:50.582Z,100611.02
2019-06-26T15:12:27.562Z,100606.51
2019-06-26T15:14:03.449Z,100606.97
2019-06-26T15:15:40.057Z,100615.27
2019-06-26T15:17:15.885Z,100607.53
2019-06-26T15:18:52.476Z,100605.56
2019-06-26T15:20:28.334Z,100608.55
2019-06-26T15:22:04.675Z,100600.78
2019-06-26T15:23:41.986Z,100600.88
2019-06-26T15:25:18.901Z,100593.11
2019-06-26T15:26:54.483Z,100598.19
2019-06-26T15:28:30.843Z,100588.81
2019-06-26T15:30:08.528Z,100594.69
2019-06-26T15:31:45.131Z,100593.18
2019-06-26T15:33:20.708Z,100596.16
2019-06-26T15:34:57.998Z,100594.20
2019-06-26T15:36:33.623Z,100592.20
2019-06-26T15:38:10.200Z,100593.12
2019-06-26T15:39:46.182Z,100587.80
2019-06-26T15:41:22.876Z,100591.55
2019-06-26T15:42:58.439Z,100595.27
2019-06-26T15:44:34.808Z,100583.35
2019-06-26T15:46:10.349Z,100587.16
2019-06-26T15:47:46.743Z,100581.84
2019-06-26T15:49:22.569Z,100579.39
2019-06-26T15:50:59.217Z,100581.94
2019-06-26T15:52:34.857Z,100583.19
2019-06-26T15:54:11.196Z,100587.80
2019-06-26T15:55:46.780Z,100582.48
2019-06-26T15:57:23.145Z,100585.83
2019-06-26T15:58:58.721Z,100580.48
2019-06-26T16:00:35.331Z,100572.28
2019-06-26T16:02:11.169Z,100575.63
2019-06-26T16:03:47.730Z,100571.95
2019-06-26T16:05:23.541Z,100573.66
2019-06-26T16:07:00.165Z,100569.14
2019-06-26T16:08:35.995Z,100574.55
2019-06-26T16:10:12.582Z,100573.75
2019-06-26T16:11:48.238Z,100572.58
2019-06-26T16:13:24.846Z,100577.55
2019-06-26T16:15:01.635Z,100570.61
2019-06-26T16:16:39.899Z,100571.03
2019-06-26T16:18:21.339Z,100574.75
2019-06-26T16:19:57.145Z,100565.72
2019-06-26T16:21:33.518Z,100574.47
2019-06-26T16:23:09.351Z,100565.02
2019-06-26T16:24:45.999Z,100571.66
2019-06-26T16:26:21.524Z,100563.89
2019-06-26T16:28:05.171Z,100571.38
2019-06-26T16:29:35.534Z,100572.75
2019-06-26T16:31:11.902Z,100565.97
2019-06-26T16:32:47.727Z,100559.22
2019-06-26T16:34:24.072Z,100558.20
2019-06-26T16:35:59.956Z,100564.21
2019-06-26T16:37:36.399Z,100556.70
2019-06-26T16:39:12.128Z,100565.22
2019-06-26T16:40:48.494Z,100559.30
2019-06-26T16:42:24.051Z,100557.11
2019-06-26T16:44:01.278Z,100556.52
2019-06-26T16:45:36.956Z,100559.18
2019-06-26T16:47:13.597Z,100564.30
2019-06-26T16:48:49.423Z,100555.44
2019-06-26T16:50:26.139Z,100566.73
2019-06-26T16:52:01.781Z,100557.41
2019-06-26T16:53:38.140Z,100559.25
2019-06-26T16:55:14.214Z,100560.59
2019-06-26T16:56:50.984Z,100560.34
2019-06-26T16:58:26.602Z,100556.42
2019-06-26T17:00:09.653Z,100559.84
2019-06-26T17:01:40.577Z,100551.77
2019-06-26T17:03:17.047Z,100552.72
2019-06-26T17:04:52.610Z,100555.34
2019-06-26T17:06:28.928Z,100558.70
2019-06-26T17:08:04.504Z,100557.20
2019-06-26T17:09:44.235Z,100556.88
2019-06-26T17:11:18.865Z,100561.88
2019-06-26T17:12:55.374Z,100560.25
2019-06-26T17:14:31.729Z,100562.37
2019-06-26T17:16:09.067Z,100559.55
2019-06-26T17:17:45.307Z,100555.91
2019-06-26T17:19:21.640Z,100562.53
2019-06-26T17:20:57.457Z,100559.70
2019-06-26T17:22:35.476Z,100550.33
2019-06-26T17:24:11.069Z,100552.41
2019-06-26T17:25:47.429Z,100553.28
2019-06-26T17:27:24.070Z,100552.08
2019-06-26T17:29:00.490Z,100546.02
2019-06-26T17:30:36.311Z,100549.73
2019-06-26T17:32:14.169Z,100552.64
2019-06-26T17:33:49.986Z,100546.93
2019-06-26T17:35:26.601Z,100546.16
2019-06-26T17:37:02.926Z,100555.62
2019-06-26T17:38:39.558Z,100562.66
2019-06-26T17:40:16.307Z,100552.45
2019-06-26T17:41:52.636Z,100557.42
2019-06-26T17:43:28.216Z,100557.45
2019-06-26T17:45:08.390Z,100554.22
2019-06-26T17:46:44.193Z,100563.23
2019-06-26T17:48:21.985Z,100562.47
2019-06-26T17:49:57.562Z,100564.97
2019-06-26T17:51:34.810Z,100567.43
2019-06-26T17:53:21.054Z,100570.33
2019-06-26T17:54:48.422Z,100557.62
2019-06-26T17:56:23.986Z,100572.83
2019-06-26T17:58:00.347Z,100560.55
2019-06-26T17:59:36.181Z,100564.66
2019-06-26T18:01:12.532Z,100566.31
2019-06-26T18:02:48.409Z,100573.30
2019-06-26T18:04:25.094Z,100569.65
2019-06-26T18:06:00.685Z,100569.67
2019-06-26T18:07:37.289Z,100566.84
2019-06-26T18:09:12.860Z,100579.17
2019-06-26T18:10:49.483Z,100573.45
2019-06-26T18:12:25.588Z,100571.45
2019-06-26T18:14:02.064Z,100576.41
2019-06-26T18:15:37.885Z,100578.88
2019-06-26T18:17:22.008Z,100583.83
2019-06-26T18:18:51.871Z,100582.22